sensor_id;sensor_type;location;lat;lon;timestamp;P1;durP1;ratioP1;P2;durP2;ratioP2
6300;SDS011;3183;51.010;6.898;2023-04-09T00:02:24;47.33;;;25.20;;
6300;SDS011;3183;51.010;6.898;2023-04-09T00:04:51;45.67;;;24.70;;
6300;SDS011;3183;51.010;6.898;2023-04-09T00:07:18;43.50;;;22.90;;
6300;SDS011;3183;51.010;6.898;2023-04-09T00:09:45;36.13;;;22.07;;
6300;SDS011;3183;51.010;6.898;2023-04-09T00:12:12;41.40;;;21.60;;
6300;SDS011;3183;51.010;6.898;2023-04-09T00:14:41;39.53;;;22.67;;
6300;SDS011;3183;51.010;6.898;2023-04-09T00:17:08;41.27;;;22.50;;
6300;SDS011;3183;51.010;6.898;2023-04-09T00:19:35;45.83;;;24.77;;
6300;SDS011;3183;51.010;6.898;2023-04-09T00:22:02;49.17;;;24.50;;
6300;SDS011;3183;51.010;6.898;2023-04-09T00:24:29;52.20;;;26.67;;
6300;SDS011;3183;51.010;6.898;2023-04-09T00:26:57;48.93;;;26.30;;
6300;SDS011;3183;51.010;6.898;2023-04-09T00:29:24;51.77;;;25.30;;
6300;SDS011;3183;51.010;6.898;2023-04-09T00:31:52;49.13;;;27.70;;
6300;SDS011;3183;51.010;6.898;2023-04-09T00:34:19;53.50;;;27.70;;
6300;SDS011;3183;51.010;6.898;2023-04-09T00:36:47;53.83;;;28.17;;
6300;SDS011;3183;51.010;6.898;2023-04-09T00:39:14;50.87;;;27.60;;
6300;SDS011;3183;51.010;6.898;2023-04-09T00:41:41;46.80;;;26.23;;
6300;SDS011;3183;51.010;6.898;2023-04-09T00:44:08;44.37;;;25.03;;
6300;SDS011;3183;51.010;6.898;2023-04-09T00:46:35;51.30;;;27.70;;
6300;SDS011;3183;51.010;6.898;2023-04-09T00:49:04;52.87;;;27.40;;
6300;SDS011;3183;51.010;6.898;2023-04-09T00:51:31;53.77;;;27.80;;
6300;SDS011;3183;51.010;6.898;2023-04-09T00:53:59;48.00;;;26.10;;
6300;SDS011;3183;51.010;6.898;2023-04-09T00:56:26;50.17;;;26.30;;
6300;SDS011;3183;51.010;6.898;2023-04-09T00:58:54;48.27;;;26.00;;
6300;SDS011;3183;51.010;6.898;2023-04-09T01:01:21;42.90;;;24.87;;
6300;SDS011;3183;51.010;6.898;2023-04-09T01:03:48;42.63;;;26.00;;
6300;SDS011;3183;51.010;6.898;2023-04-09T01:06:20;48.37;;;26.40;;
6300;SDS011;3183;51.010;6.898;2023-04-09T01:08:50;46.17;;;25.17;;
6300;SDS011;3183;51.010;6.898;2023-04-09T01:11:23;47.60;;;25.47;;
6300;SDS011;3183;51.010;6.898;2023-04-09T01:13:57;47.20;;;25.43;;
6300;SDS011;3183;51.010;6.898;2023-04-09T01:16:27;58.13;;;30.30;;
6300;SDS011;3183;51.010;6.898;2023-04-09T01:18:55;58.77;;;28.27;;
6300;SDS011;3183;51.010;6.898;2023-04-09T01:21:27;51.27;;;28.47;;
6300;SDS011;3183;51.010;6.898;2023-04-09T01:23:57;49.70;;;26.60;;
6300;SDS011;3183;51.010;6.898;2023-04-09T01:26:29;47.20;;;26.00;;
6300;SDS011;3183;51.010;6.898;2023-04-09T01:29:01;59.20;;;27.20;;
6300;SDS011;3183;51.010;6.898;2023-04-09T01:31:29;52.17;;;27.20;;
6300;SDS011;3183;51.010;6.898;2023-04-09T01:33:57;45.53;;;25.20;;
6300;SDS011;3183;51.010;6.898;2023-04-09T01:36:25;47.33;;;25.30;;
6300;SDS011;3183;51.010;6.898;2023-04-09T01:38:53;49.80;;;26.30;;
6300;SDS011;3183;51.010;6.898;2023-04-09T01:41:21;44.13;;;26.13;;
6300;SDS011;3183;51.010;6.898;2023-04-09T01:43:50;43.73;;;25.50;;
6300;SDS011;3183;51.010;6.898;2023-04-09T01:46:19;54.87;;;26.50;;
6300;SDS011;3183;51.010;6.898;2023-04-09T01:48:47;46.73;;;26.30;;
6300;SDS011;3183;51.010;6.898;2023-04-09T01:51:14;51.80;;;25.43;;
6300;SDS011;3183;51.010;6.898;2023-04-09T01:53:42;44.00;;;25.50;;
6300;SDS011;3183;51.010;6.898;2023-04-09T01:56:09;48.07;;;25.93;;
6300;SDS011;3183;51.010;6.898;2023-04-09T01:58:36;42.93;;;24.57;;
6300;SDS011;3183;51.010;6.898;2023-04-09T02:01:05;46.77;;;24.07;;
6300;SDS011;3183;51.010;6.898;2023-04-09T02:03:38;43.50;;;23.10;;
6300;SDS011;3183;51.010;6.898;2023-04-09T02:06:08;45.90;;;24.97;;
6300;SDS011;3183;51.010;6.898;2023-04-09T02:08:39;44.63;;;23.07;;
6300;SDS011;3183;51.010;6.898;2023-04-09T02:11:08;45.40;;;23.90;;
6300;SDS011;3183;51.010;6.898;2023-04-09T02:13:36;39.80;;;23.23;;
6300;SDS011;3183;51.010;6.898;2023-04-09T02:16:04;45.10;;;24.33;;
6300;SDS011;3183;51.010;6.898;2023-04-09T02:18:31;39.97;;;22.77;;
6300;SDS011;3183;51.010;6.898;2023-04-09T02:21:00;41.60;;;21.93;;
6300;SDS011;3183;51.010;6.898;2023-04-09T02:23:27;43.57;;;23.47;;
6300;SDS011;3183;51.010;6.898;2023-04-09T02:25:56;40.03;;;22.40;;
6300;SDS011;3183;51.010;6.898;2023-04-09T02:28:23;36.93;;;21.47;;
6300;SDS011;3183;51.010;6.898;2023-04-09T02:30:50;38.50;;;20.37;;
6300;SDS011;3183;51.010;6.898;2023-04-09T02:33:17;40.50;;;22.50;;
6300;SDS011;3183;51.010;6.898;2023-04-09T02:35:44;35.37;;;20.17;;
6300;SDS011;3183;51.010;6.898;2023-04-09T02:38:13;45.20;;;20.70;;
6300;SDS011;3183;51.010;6.898;2023-04-09T02:40:40;34.00;;;19.63;;
6300;SDS011;3183;51.010;6.898;2023-04-09T02:43:07;37.60;;;21.30;;
6300;SDS011;3183;51.010;6.898;2023-04-09T02:45:34;37.40;;;19.43;;
6300;SDS011;3183;51.010;6.898;2023-04-09T02:48:02;38.87;;;20.50;;
6300;SDS011;3183;51.010;6.898;2023-04-09T02:50:29;32.67;;;19.33;;
6300;SDS011;3183;51.010;6.898;2023-04-09T02:52:56;44.33;;;23.63;;
6300;SDS011;3183;51.010;6.898;2023-04-09T02:55:25;35.27;;;19.53;;
6300;SDS011;3183;51.010;6.898;2023-04-09T02:57:52;38.63;;;20.00;;
6300;SDS011;3183;51.010;6.898;2023-04-09T03:00:19;38.37;;;21.50;;
6300;SDS011;3183;51.010;6.898;2023-04-09T03:02:46;40.03;;;19.97;;
6300;SDS011;3183;51.010;6.898;2023-04-09T03:05:13;32.40;;;18.93;;
6300;SDS011;3183;51.010;6.898;2023-04-09T03:07:40;38.60;;;20.27;;
6300;SDS011;3183;51.010;6.898;2023-04-09T03:10:08;36.57;;;19.10;;
6300;SDS011;3183;51.010;6.898;2023-04-09T03:12:36;35.27;;;19.70;;
6300;SDS011;3183;51.010;6.898;2023-04-09T03:15:04;36.27;;;19.40;;
6300;SDS011;3183;51.010;6.898;2023-04-09T03:17:31;36.20;;;20.37;;
6300;SDS011;3183;51.010;6.898;2023-04-09T03:19:58;34.23;;;20.57;;
6300;SDS011;3183;51.010;6.898;2023-04-09T03:22:25;36.57;;;19.77;;
6300;SDS011;3183;51.010;6.898;2023-04-09T03:24:53;33.80;;;20.00;;
6300;SDS011;3183;51.010;6.898;2023-04-09T03:27:20;39.77;;;21.40;;
6300;SDS011;3183;51.010;6.898;2023-04-09T03:29:48;41.20;;;22.07;;
6300;SDS011;3183;51.010;6.898;2023-04-09T03:32:15;33.33;;;17.63;;
6300;SDS011;3183;51.010;6.898;2023-04-09T03:34:42;34.57;;;19.70;;
6300;SDS011;3183;51.010;6.898;2023-04-09T03:37:09;35.83;;;19.27;;
6300;SDS011;3183;51.010;6.898;2023-04-09T03:39:37;38.03;;;18.10;;
6300;SDS011;3183;51.010;6.898;2023-04-09T03:42:04;37.20;;;20.13;;
6300;SDS011;3183;51.010;6.898;2023-04-09T03:44:31;37.00;;;19.27;;
6300;SDS011;3183;51.010;6.898;2023-04-09T03:46:59;36.27;;;19.53;;
6300;SDS011;3183;51.010;6.898;2023-04-09T03:49:27;37.87;;;20.00;;
6300;SDS011;3183;51.010;6.898;2023-04-09T03:51:54;40.80;;;20.83;;
6300;SDS011;3183;51.010;6.898;2023-04-09T03:54:21;34.77;;;19.30;;
6300;SDS011;3183;51.010;6.898;2023-04-09T03:56:48;38.40;;;20.67;;
6300;SDS011;3183;51.010;6.898;2023-04-09T03:59:15;45.30;;;20.50;;
6300;SDS011;3183;51.010;6.898;2023-04-09T04:01:42;35.10;;;20.30;;
6300;SDS011;3183;51.010;6.898;2023-04-09T04:04:11;43.20;;;21.77;;
6300;SDS011;3183;51.010;6.898;2023-04-09T04:06:38;35.90;;;19.47;;
6300;SDS011;3183;51.010;6.898;2023-04-09T04:09:05;43.93;;;21.00;;
6300;SDS011;3183;51.010;6.898;2023-04-09T04:11:32;38.13;;;20.07;;
6300;SDS011;3183;51.010;6.898;2023-04-09T04:13:59;41.60;;;21.20;;
6300;SDS011;3183;51.010;6.898;2023-04-09T04:16:27;36.73;;;20.63;;
6300;SDS011;3183;51.010;6.898;2023-04-09T04:18:54;39.80;;;20.10;;
6300;SDS011;3183;51.010;6.898;2023-04-09T04:21:22;41.87;;;19.77;;
6300;SDS011;3183;51.010;6.898;2023-04-09T04:23:49;36.07;;;19.53;;
6300;SDS011;3183;51.010;6.898;2023-04-09T04:26:16;35.00;;;19.80;;
6300;SDS011;3183;51.010;6.898;2023-04-09T04:28:44;38.60;;;21.50;;
6300;SDS011;3183;51.010;6.898;2023-04-09T04:31:11;32.47;;;18.90;;
6300;SDS011;3183;51.010;6.898;2023-04-09T04:33:39;30.30;;;18.70;;
6300;SDS011;3183;51.010;6.898;2023-04-09T04:36:07;40.50;;;21.50;;
6300;SDS011;3183;51.010;6.898;2023-04-09T04:38:36;35.87;;;19.20;;
6300;SDS011;3183;51.010;6.898;2023-04-09T04:41:03;37.37;;;19.83;;
6300;SDS011;3183;51.010;6.898;2023-04-09T04:43:30;38.07;;;19.13;;
6300;SDS011;3183;51.010;6.898;2023-04-09T04:45:57;32.60;;;18.73;;
6300;SDS011;3183;51.010;6.898;2023-04-09T04:48:25;35.83;;;19.27;;
6300;SDS011;3183;51.010;6.898;2023-04-09T04:50:55;44.00;;;21.37;;
6300;SDS011;3183;51.010;6.898;2023-04-09T04:53:23;36.00;;;19.87;;
6300;SDS011;3183;51.010;6.898;2023-04-09T04:55:51;36.70;;;20.43;;
6300;SDS011;3183;51.010;6.898;2023-04-09T04:58:19;38.90;;;21.60;;
6300;SDS011;3183;51.010;6.898;2023-04-09T05:00:46;36.17;;;19.27;;
6300;SDS011;3183;51.010;6.898;2023-04-09T05:03:13;35.83;;;19.03;;
6300;SDS011;3183;51.010;6.898;2023-04-09T05:05:40;40.17;;;20.70;;
6300;SDS011;3183;51.010;6.898;2023-04-09T05:08:07;41.87;;;20.03;;
6300;SDS011;3183;51.010;6.898;2023-04-09T05:10:34;42.77;;;20.70;;
6300;SDS011;3183;51.010;6.898;2023-04-09T05:13:03;34.60;;;18.13;;
6300;SDS011;3183;51.010;6.898;2023-04-09T05:15:30;36.23;;;19.23;;
6300;SDS011;3183;51.010;6.898;2023-04-09T05:17:57;42.03;;;20.17;;
6300;SDS011;3183;51.010;6.898;2023-04-09T05:20:26;36.17;;;19.50;;
6300;SDS011;3183;51.010;6.898;2023-04-09T05:22:53;36.10;;;19.33;;
6300;SDS011;3183;51.010;6.898;2023-04-09T05:25:20;43.73;;;18.93;;
6300;SDS011;3183;51.010;6.898;2023-04-09T05:27:47;47.53;;;19.97;;
6300;SDS011;3183;51.010;6.898;2023-04-09T05:30:16;35.43;;;19.13;;
6300;SDS011;3183;51.010;6.898;2023-04-09T05:32:43;36.43;;;18.90;;
6300;SDS011;3183;51.010;6.898;2023-04-09T05:35:10;37.77;;;20.60;;
6300;SDS011;3183;51.010;6.898;2023-04-09T05:37:37;35.60;;;18.77;;
6300;SDS011;3183;51.010;6.898;2023-04-09T05:40:04;34.77;;;19.57;;
6300;SDS011;3183;51.010;6.898;2023-04-09T05:42:32;40.20;;;20.50;;
6300;SDS011;3183;51.010;6.898;2023-04-09T05:44:59;35.07;;;19.07;;
6300;SDS011;3183;51.010;6.898;2023-04-09T05:47:27;41.33;;;20.40;;
6300;SDS011;3183;51.010;6.898;2023-04-09T05:49:54;35.37;;;19.37;;
6300;SDS011;3183;51.010;6.898;2023-04-09T05:52:21;30.77;;;18.87;;
6300;SDS011;3183;51.010;6.898;2023-04-09T05:54:49;39.03;;;18.80;;
6300;SDS011;3183;51.010;6.898;2023-04-09T05:57:16;30.10;;;17.13;;
6300;SDS011;3183;51.010;6.898;2023-04-09T05:59:43;28.50;;;16.20;;
6300;SDS011;3183;51.010;6.898;2023-04-09T06:02:10;35.30;;;15.60;;
6300;SDS011;3183;51.010;6.898;2023-04-09T06:04:38;26.40;;;15.30;;
6300;SDS011;3183;51.010;6.898;2023-04-09T06:07:05;25.50;;;15.90;;
6300;SDS011;3183;51.010;6.898;2023-04-09T06:09:33;22.73;;;14.13;;
6300;SDS011;3183;51.010;6.898;2023-04-09T06:12:00;22.50;;;13.90;;
6300;SDS011;3183;51.010;6.898;2023-04-09T06:14:28;20.17;;;13.50;;
6300;SDS011;3183;51.010;6.898;2023-04-09T06:16:57;24.13;;;13.50;;
6300;SDS011;3183;51.010;6.898;2023-04-09T06:19:24;21.03;;;12.07;;
6300;SDS011;3183;51.010;6.898;2023-04-09T06:21:52;28.10;;;13.50;;
6300;SDS011;3183;51.010;6.898;2023-04-09T06:24:20;21.50;;;12.90;;
6300;SDS011;3183;51.010;6.898;2023-04-09T06:26:47;19.97;;;11.97;;
6300;SDS011;3183;51.010;6.898;2023-04-09T06:29:14;16.63;;;11.90;;
6300;SDS011;3183;51.010;6.898;2023-04-09T06:31:41;18.03;;;12.83;;
6300;SDS011;3183;51.010;6.898;2023-04-09T06:34:08;17.77;;;12.53;;
6300;SDS011;3183;51.010;6.898;2023-04-09T06:36:36;19.87;;;12.20;;
6300;SDS011;3183;51.010;6.898;2023-04-09T06:39:05;17.43;;;12.60;;
6300;SDS011;3183;51.010;6.898;2023-04-09T06:41:32;14.83;;;10.40;;
6300;SDS011;3183;51.010;6.898;2023-04-09T06:43:59;18.30;;;11.40;;
6300;SDS011;3183;51.010;6.898;2023-04-09T06:46:27;16.47;;;10.77;;
6300;SDS011;3183;51.010;6.898;2023-04-09T06:48:54;17.10;;;11.17;;
6300;SDS011;3183;51.010;6.898;2023-04-09T06:51:21;18.53;;;10.97;;
6300;SDS011;3183;51.010;6.898;2023-04-09T06:53:48;16.50;;;11.37;;
6300;SDS011;3183;51.010;6.898;2023-04-09T06:56:16;15.73;;;10.17;;
6300;SDS011;3183;51.010;6.898;2023-04-09T06:58:44;17.43;;;11.30;;
6300;SDS011;3183;51.010;6.898;2023-04-09T07:01:11;16.00;;;9.90;;
6300;SDS011;3183;51.010;6.898;2023-04-09T07:03:38;15.77;;;10.10;;
6300;SDS011;3183;51.010;6.898;2023-04-09T07:06:05;18.30;;;11.27;;
6300;SDS011;3183;51.010;6.898;2023-04-09T07:08:32;16.67;;;11.10;;
6300;SDS011;3183;51.010;6.898;2023-04-09T07:11:00;12.33;;;9.50;;
6300;SDS011;3183;51.010;6.898;2023-04-09T07:13:28;18.70;;;10.43;;
6300;SDS011;3183;51.010;6.898;2023-04-09T07:15:56;14.67;;;9.70;;
6300;SDS011;3183;51.010;6.898;2023-04-09T07:18:24;16.30;;;9.80;;
6300;SDS011;3183;51.010;6.898;2023-04-09T07:20:51;14.83;;;10.13;;
6300;SDS011;3183;51.010;6.898;2023-04-09T07:23:19;15.57;;;9.80;;
6300;SDS011;3183;51.010;6.898;2023-04-09T07:25:46;14.70;;;9.40;;
6300;SDS011;3183;51.010;6.898;2023-04-09T07:28:13;16.67;;;9.97;;
6300;SDS011;3183;51.010;6.898;2023-04-09T07:30:42;17.03;;;8.47;;
6300;SDS011;3183;51.010;6.898;2023-04-09T07:33:10;14.50;;;9.37;;
6300;SDS011;3183;51.010;6.898;2023-04-09T07:35:37;12.30;;;9.07;;
6300;SDS011;3183;51.010;6.898;2023-04-09T07:38:04;13.17;;;8.60;;
6300;SDS011;3183;51.010;6.898;2023-04-09T07:40:32;14.73;;;8.80;;
6300;SDS011;3183;51.010;6.898;2023-04-09T07:43:00;14.40;;;9.63;;
6300;SDS011;3183;51.010;6.898;2023-04-09T07:45:27;14.43;;;9.07;;
6300;SDS011;3183;51.010;6.898;2023-04-09T07:47:56;18.77;;;10.17;;
6300;SDS011;3183;51.010;6.898;2023-04-09T07:50:23;16.00;;;9.90;;
6300;SDS011;3183;51.010;6.898;2023-04-09T07:52:51;13.40;;;8.90;;
6300;SDS011;3183;51.010;6.898;2023-04-09T07:55:18;12.77;;;8.53;;
6300;SDS011;3183;51.010;6.898;2023-04-09T07:57:45;14.10;;;8.60;;
6300;SDS011;3183;51.010;6.898;2023-04-09T08:00:13;11.30;;;7.97;;
6300;SDS011;3183;51.010;6.898;2023-04-09T08:02:40;13.87;;;9.87;;
6300;SDS011;3183;51.010;6.898;2023-04-09T08:05:09;15.03;;;9.60;;
6300;SDS011;3183;51.010;6.898;2023-04-09T08:07:36;11.27;;;7.80;;
6300;SDS011;3183;51.010;6.898;2023-04-09T08:10:04;12.37;;;7.90;;
6300;SDS011;3183;51.010;6.898;2023-04-09T08:12:32;10.23;;;8.07;;
6300;SDS011;3183;51.010;6.898;2023-04-09T08:14:59;12.80;;;8.50;;
6300;SDS011;3183;51.010;6.898;2023-04-09T08:17:28;10.17;;;7.23;;
6300;SDS011;3183;51.010;6.898;2023-04-09T08:19:55;11.70;;;7.73;;
6300;SDS011;3183;51.010;6.898;2023-04-09T08:22:24;12.00;;;8.30;;
6300;SDS011;3183;51.010;6.898;2023-04-09T08:24:51;13.33;;;7.63;;
6300;SDS011;3183;51.010;6.898;2023-04-09T08:27:18;11.80;;;7.00;;
6300;SDS011;3183;51.010;6.898;2023-04-09T08:29:46;11.75;;;7.75;;
6300;SDS011;3183;51.010;6.898;2023-04-09T08:32:13;9.93;;;7.17;;
6300;SDS011;3183;51.010;6.898;2023-04-09T08:34:41;11.33;;;7.30;;
6300;SDS011;3183;51.010;6.898;2023-04-09T08:37:08;12.10;;;7.50;;
6300;SDS011;3183;51.010;6.898;2023-04-09T08:39:36;11.20;;;7.10;;
6300;SDS011;3183;51.010;6.898;2023-04-09T08:42:04;10.37;;;6.63;;
6300;SDS011;3183;51.010;6.898;2023-04-09T08:44:32;8.57;;;6.27;;
6300;SDS011;3183;51.010;6.898;2023-04-09T08:46:59;9.70;;;6.53;;
6300;SDS011;3183;51.010;6.898;2023-04-09T08:49:26;6.30;;;5.43;;
6300;SDS011;3183;51.010;6.898;2023-04-09T08:51:54;8.10;;;5.97;;
6300;SDS011;3183;51.010;6.898;2023-04-09T08:54:21;10.97;;;6.40;;
6300;SDS011;3183;51.010;6.898;2023-04-09T08:56:52;8.33;;;5.83;;
6300;SDS011;3183;51.010;6.898;2023-04-09T08:59:19;8.50;;;5.30;;
6300;SDS011;3183;51.010;6.898;2023-04-09T09:01:46;9.83;;;6.60;;
6300;SDS011;3183;51.010;6.898;2023-04-09T09:04:18;7.50;;;6.13;;
6300;SDS011;3183;51.010;6.898;2023-04-09T09:06:45;9.00;;;6.60;;
6300;SDS011;3183;51.010;6.898;2023-04-09T09:09:13;7.93;;;5.90;;
6300;SDS011;3183;51.010;6.898;2023-04-09T09:11:40;10.33;;;6.60;;
6300;SDS011;3183;51.010;6.898;2023-04-09T09:14:10;8.63;;;5.80;;
6300;SDS011;3183;51.010;6.898;2023-04-09T09:16:38;9.50;;;5.67;;
6300;SDS011;3183;51.010;6.898;2023-04-09T09:19:07;9.70;;;7.00;;
6300;SDS011;3183;51.010;6.898;2023-04-09T09:21:34;8.27;;;5.57;;
6300;SDS011;3183;51.010;6.898;2023-04-09T09:24:04;5.00;;;4.27;;
6300;SDS011;3183;51.010;6.898;2023-04-09T09:26:41;7.67;;;5.87;;
6300;SDS011;3183;51.010;6.898;2023-04-09T09:29:10;9.60;;;5.77;;
6300;SDS011;3183;51.010;6.898;2023-04-09T09:31:44;8.67;;;6.30;;
6300;SDS011;3183;51.010;6.898;2023-04-09T09:34:14;8.87;;;5.27;;
6300;SDS011;3183;51.010;6.898;2023-04-09T09:36:42;7.07;;;4.93;;
6300;SDS011;3183;51.010;6.898;2023-04-09T09:39:09;5.27;;;4.30;;
6300;SDS011;3183;51.010;6.898;2023-04-09T09:41:37;11.03;;;6.13;;
6300;SDS011;3183;51.010;6.898;2023-04-09T09:44:05;7.30;;;4.83;;
6300;SDS011;3183;51.010;6.898;2023-04-09T09:46:34;7.40;;;4.90;;
6300;SDS011;3183;51.010;6.898;2023-04-09T09:49:02;8.30;;;5.40;;
6300;SDS011;3183;51.010;6.898;2023-04-09T09:51:30;6.33;;;4.83;;
6300;SDS011;3183;51.010;6.898;2023-04-09T09:53:57;8.47;;;5.50;;
6300;SDS011;3183;51.010;6.898;2023-04-09T09:56:28;7.37;;;4.90;;
6300;SDS011;3183;51.010;6.898;2023-04-09T09:59:06;6.97;;;5.60;;
6300;SDS011;3183;51.010;6.898;2023-04-09T10:01:36;7.80;;;5.73;;
6300;SDS011;3183;51.010;6.898;2023-04-09T10:04:04;6.70;;;5.07;;
6300;SDS011;3183;51.010;6.898;2023-04-09T10:06:32;7.33;;;5.50;;
6300;SDS011;3183;51.010;6.898;2023-04-09T10:09:02;7.70;;;5.43;;
6300;SDS011;3183;51.010;6.898;2023-04-09T10:11:30;9.07;;;5.43;;
6300;SDS011;3183;51.010;6.898;2023-04-09T10:13:58;12.10;;;6.53;;
6300;SDS011;3183;51.010;6.898;2023-04-09T10:18:55;9.33;;;5.83;;
6300;SDS011;3183;51.010;6.898;2023-04-09T10:21:25;9.70;;;5.57;;
6300;SDS011;3183;51.010;6.898;2023-04-09T10:23:54;10.30;;;6.27;;
6300;SDS011;3183;51.010;6.898;2023-04-09T10:26:23;6.83;;;5.20;;
6300;SDS011;3183;51.010;6.898;2023-04-09T10:29:02;4.80;;;4.30;;
6300;SDS011;3183;51.010;6.898;2023-04-09T10:31:43;6.63;;;4.97;;
6300;SDS011;3183;51.010;6.898;2023-04-09T10:34:12;9.40;;;5.27;;
6300;SDS011;3183;51.010;6.898;2023-04-09T10:36:41;9.70;;;5.57;;
6300;SDS011;3183;51.010;6.898;2023-04-09T10:39:10;10.30;;;6.00;;
6300;SDS011;3183;51.010;6.898;2023-04-09T10:41:38;7.90;;;5.83;;
6300;SDS011;3183;51.010;6.898;2023-04-09T10:44:06;7.20;;;5.07;;
6300;SDS011;3183;51.010;6.898;2023-04-09T10:46:45;9.53;;;5.70;;
6300;SDS011;3183;51.010;6.898;2023-04-09T10:49:16;7.20;;;5.30;;
6300;SDS011;3183;51.010;6.898;2023-04-09T10:51:52;9.30;;;4.97;;
6300;SDS011;3183;51.010;6.898;2023-04-09T10:54:36;8.70;;;5.53;;
6300;SDS011;3183;51.010;6.898;2023-04-09T10:59:53;8.37;;;5.83;;
6300;SDS011;3183;51.010;6.898;2023-04-09T11:05:19;9.43;;;6.50;;
6300;SDS011;3183;51.010;6.898;2023-04-09T11:07:50;9.90;;;6.40;;
6300;SDS011;3183;51.010;6.898;2023-04-09T11:10:18;9.23;;;6.00;;
6300;SDS011;3183;51.010;6.898;2023-04-09T11:12:46;11.13;;;6.80;;
6300;SDS011;3183;51.010;6.898;2023-04-09T11:15:17;10.27;;;6.77;;
6300;SDS011;3183;51.010;6.898;2023-04-09T11:17:44;9.00;;;6.27;;
6300;SDS011;3183;51.010;6.898;2023-04-09T11:20:12;10.95;;;6.25;;
6300;SDS011;3183;51.010;6.898;2023-04-09T11:59:30;7.43;;;5.30;;
6300;SDS011;3183;51.010;6.898;2023-04-09T12:14:12;10.40;;;6.47;;
6300;SDS011;3183;51.010;6.898;2023-04-09T12:16:41;6.40;;;4.20;;
6300;SDS011;3183;51.010;6.898;2023-04-09T12:19:09;7.40;;;5.47;;
6300;SDS011;3183;51.010;6.898;2023-04-09T12:21:46;8.13;;;5.10;;
6300;SDS011;3183;51.010;6.898;2023-04-09T12:24:13;9.67;;;6.07;;
6300;SDS011;3183;51.010;6.898;2023-04-09T12:26:41;7.50;;;5.43;;
6300;SDS011;3183;51.010;6.898;2023-04-09T12:29:08;8.97;;;5.77;;
6300;SDS011;3183;51.010;6.898;2023-04-09T12:31:35;10.87;;;6.00;;
6300;SDS011;3183;51.010;6.898;2023-04-09T12:36:30;9.07;;;5.03;;
6300;SDS011;3183;51.010;6.898;2023-04-09T12:38:57;9.30;;;5.10;;
6300;SDS011;3183;51.010;6.898;2023-04-09T12:41:25;9.10;;;5.13;;
6300;SDS011;3183;51.010;6.898;2023-04-09T12:43:52;6.90;;;5.10;;
6300;SDS011;3183;51.010;6.898;2023-04-09T12:46:19;8.77;;;5.63;;
6300;SDS011;3183;51.010;6.898;2023-04-09T12:48:46;6.30;;;4.60;;
6300;SDS011;3183;51.010;6.898;2023-04-09T12:51:13;7.50;;;5.37;;
6300;SDS011;3183;51.010;6.898;2023-04-09T12:53:42;5.83;;;4.87;;
6300;SDS011;3183;51.010;6.898;2023-04-09T12:56:09;7.50;;;5.67;;
6300;SDS011;3183;51.010;6.898;2023-04-09T12:58:36;8.10;;;5.43;;
6300;SDS011;3183;51.010;6.898;2023-04-09T13:01:03;7.00;;;4.60;;
6300;SDS011;3183;51.010;6.898;2023-04-09T13:03:31;6.43;;;4.33;;
6300;SDS011;3183;51.010;6.898;2023-04-09T13:05:58;6.07;;;4.60;;
6300;SDS011;3183;51.010;6.898;2023-04-09T13:08:25;6.40;;;4.93;;
6300;SDS011;3183;51.010;6.898;2023-04-09T13:10:53;6.43;;;4.80;;
6300;SDS011;3183;51.010;6.898;2023-04-09T13:13:21;8.03;;;4.77;;
6300;SDS011;3183;51.010;6.898;2023-04-09T13:15:49;5.77;;;4.40;;
6300;SDS011;3183;51.010;6.898;2023-04-09T13:18:16;5.27;;;4.00;;
6300;SDS011;3183;51.010;6.898;2023-04-09T13:20:43;6.60;;;4.40;;
6300;SDS011;3183;51.010;6.898;2023-04-09T13:23:10;7.40;;;5.60;;
6300;SDS011;3183;51.010;6.898;2023-04-09T13:25:37;8.33;;;5.20;;
6300;SDS011;3183;51.010;6.898;2023-04-09T13:28:06;6.30;;;4.70;;
6300;SDS011;3183;51.010;6.898;2023-04-09T13:30:33;5.20;;;4.03;;
6300;SDS011;3183;51.010;6.898;2023-04-09T13:33:00;6.70;;;4.80;;
6300;SDS011;3183;51.010;6.898;2023-04-09T13:35:27;7.13;;;4.50;;
6300;SDS011;3183;51.010;6.898;2023-04-09T13:37:54;7.43;;;4.80;;
6300;SDS011;3183;51.010;6.898;2023-04-09T13:40:21;6.93;;;4.87;;
6300;SDS011;3183;51.010;6.898;2023-04-09T13:42:48;8.23;;;5.30;;
6300;SDS011;3183;51.010;6.898;2023-04-09T13:45:17;6.87;;;4.70;;
6300;SDS011;3183;51.010;6.898;2023-04-09T13:47:45;5.77;;;4.30;;
6300;SDS011;3183;51.010;6.898;2023-04-09T13:50:12;12.73;;;5.07;;
6300;SDS011;3183;51.010;6.898;2023-04-09T13:52:39;6.37;;;4.53;;
6300;SDS011;3183;51.010;6.898;2023-04-09T13:55:07;8.00;;;5.40;;
6300;SDS011;3183;51.010;6.898;2023-04-09T13:57:35;7.43;;;5.00;;
6300;SDS011;3183;51.010;6.898;2023-04-09T14:00:04;6.80;;;4.73;;
6300;SDS011;3183;51.010;6.898;2023-04-09T14:02:32;6.87;;;4.80;;
6300;SDS011;3183;51.010;6.898;2023-04-09T14:04:59;7.40;;;4.60;;
6300;SDS011;3183;51.010;6.898;2023-04-09T14:07:27;8.53;;;5.60;;
6300;SDS011;3183;51.010;6.898;2023-04-09T14:09:54;8.00;;;5.13;;
6300;SDS011;3183;51.010;6.898;2023-04-09T14:12:21;4.97;;;4.23;;
6300;SDS011;3183;51.010;6.898;2023-04-09T14:14:49;7.83;;;4.90;;
6300;SDS011;3183;51.010;6.898;2023-04-09T14:17:16;6.83;;;4.70;;
6300;SDS011;3183;51.010;6.898;2023-04-09T14:19:44;5.67;;;4.50;;
6300;SDS011;3183;51.010;6.898;2023-04-09T14:22:11;6.13;;;4.33;;
6300;SDS011;3183;51.010;6.898;2023-04-09T14:24:39;6.50;;;4.47;;
6300;SDS011;3183;51.010;6.898;2023-04-09T14:27:06;7.90;;;5.10;;
6300;SDS011;3183;51.010;6.898;2023-04-09T14:29:33;5.23;;;4.27;;
6300;SDS011;3183;51.010;6.898;2023-04-09T14:32:00;6.47;;;4.77;;
6300;SDS011;3183;51.010;6.898;2023-04-09T14:34:28;7.70;;;4.90;;
6300;SDS011;3183;51.010;6.898;2023-04-09T14:36:57;6.47;;;4.17;;
6300;SDS011;3183;51.010;6.898;2023-04-09T14:39:24;8.13;;;4.97;;
6300;SDS011;3183;51.010;6.898;2023-04-09T14:41:51;6.97;;;4.43;;
6300;SDS011;3183;51.010;6.898;2023-04-09T14:44:21;9.67;;;5.37;;
6300;SDS011;3183;51.010;6.898;2023-04-09T14:46:49;8.00;;;4.27;;
6300;SDS011;3183;51.010;6.898;2023-04-09T14:49:18;6.90;;;5.10;;
6300;SDS011;3183;51.010;6.898;2023-04-09T14:51:45;10.13;;;4.90;;
6300;SDS011;3183;51.010;6.898;2023-04-09T14:54:14;7.47;;;4.80;;
6300;SDS011;3183;51.010;6.898;2023-04-09T14:56:41;5.43;;;4.20;;
6300;SDS011;3183;51.010;6.898;2023-04-09T14:59:08;6.20;;;4.63;;
6300;SDS011;3183;51.010;6.898;2023-04-09T15:01:35;7.17;;;4.63;;
6300;SDS011;3183;51.010;6.898;2023-04-09T15:04:02;6.57;;;4.47;;
6300;SDS011;3183;51.010;6.898;2023-04-09T15:06:30;6.10;;;4.40;;
6300;SDS011;3183;51.010;6.898;2023-04-09T15:08:57;7.07;;;4.93;;
6300;SDS011;3183;51.010;6.898;2023-04-09T15:11:25;8.17;;;4.67;;
6300;SDS011;3183;51.010;6.898;2023-04-09T15:13:53;7.53;;;5.03;;
6300;SDS011;3183;51.010;6.898;2023-04-09T15:16:22;7.50;;;4.73;;
6300;SDS011;3183;51.010;6.898;2023-04-09T15:18:49;6.40;;;4.80;;
6300;SDS011;3183;51.010;6.898;2023-04-09T15:21:19;7.90;;;5.50;;
6300;SDS011;3183;51.010;6.898;2023-04-09T15:23:48;5.80;;;4.30;;
6300;SDS011;3183;51.010;6.898;2023-04-09T15:26:15;5.93;;;4.63;;
6300;SDS011;3183;51.010;6.898;2023-04-09T15:28:44;7.00;;;4.50;;
6300;SDS011;3183;51.010;6.898;2023-04-09T15:31:11;6.17;;;4.50;;
6300;SDS011;3183;51.010;6.898;2023-04-09T15:33:39;9.07;;;5.30;;
6300;SDS011;3183;51.010;6.898;2023-04-09T15:36:07;8.40;;;4.70;;
6300;SDS011;3183;51.010;6.898;2023-04-09T15:38:35;6.30;;;4.70;;
6300;SDS011;3183;51.010;6.898;2023-04-09T15:41:03;5.80;;;4.20;;
6300;SDS011;3183;51.010;6.898;2023-04-09T15:43:30;6.97;;;4.47;;
6300;SDS011;3183;51.010;6.898;2023-04-09T15:45:59;5.27;;;4.47;;
6300;SDS011;3183;51.010;6.898;2023-04-09T15:48:32;5.60;;;4.23;;
6300;SDS011;3183;51.010;6.898;2023-04-09T15:50:59;5.67;;;4.27;;
6300;SDS011;3183;51.010;6.898;2023-04-09T15:53:28;6.27;;;4.10;;
6300;SDS011;3183;51.010;6.898;2023-04-09T15:55:55;6.80;;;4.40;;
6300;SDS011;3183;51.010;6.898;2023-04-09T15:58:23;6.47;;;4.30;;
6300;SDS011;3183;51.010;6.898;2023-04-09T16:00:50;6.53;;;4.27;;
6300;SDS011;3183;51.010;6.898;2023-04-09T16:03:18;7.87;;;4.30;;
6300;SDS011;3183;51.010;6.898;2023-04-09T16:05:46;5.73;;;3.60;;